RCSS/TSA METAR and TAF weather

Enter ICAO airport designator
Station Type Date Time Source
RCSS METAR 2021/09/16 20:00 UTC NOAA

RCSS 162000Z VRB02KT 9999 FEW025 SCT050 27/21 Q1009 NOSIG RMK A2980


Station Type Date Time Source
RCSS Decoded METAR 2021/09/16 20:00 UTC NOAA

Sungshan / Taipei, Taiwan (RCSS) 25-04N 121-33E
Sep 16, 2021 - 04:00 PM EDT / 2021.09.16 2000 UTC
Wind: Variable at 2 MPH (2 KT):0
Visibility: greater than 7 mile(s):0
Sky conditions: partly cloudy
Temperature: 80 F (27 C)
Dew Point: 69 F (21 C)
Relative Humidity: 69%
Pressure (altimeter): 29.80 in. Hg (1009 hPa)
ob: RCSS 162000Z VRB02KT 9999 FEW025 SCT050 27/21 Q1009 NOSIG RMK A2980
cycle: 20

Station Type Date Time Source
RCSS TAF 2021/09/16 18:03 UTC NOAA

TAF RCSS 161700Z 1618/1718 09005KT 9999 FEW020 BKN032
TEMPO 1621/1624 VRB03KT 4000 SHRA SCT008 FEW012CB BKN017 BKN040
BECMG 1700/1702 30005KT
TEMPO 1705/1708 10012KT 4000 TSRA SCT008 FEW012CB BKN017 BKN040
BECMG 1708/1710 09008KT

Example: see airport list